Time;durP1;ratioP1;P1;durP2;ratioP2;P2;SDS_P1;SDS_P2;PMS_P1;PMS_P2;Temp;Humidity;BMP_temperature;BMP_pressure;BME280_temperature;BME280_humidity;BME280_pressure;Samples;Min_cycle;Max_cycle;Signal;HPM_P1;HPM_P2
2021/06/03 00:00:22;;;;;;;5.07;4.30;;;;;;;7.23;75.51;94257.41;730172;40;20100;-85
2021/06/03 00:00:59;;;;;;;9.70;4.85;;;;;;;7.19;75.77;94256.19;732158;40;20036;-85
2021/06/03 00:01:30;;;;;;;7.20;4.97;;;;;;;6.88;76.13;94209.47;724239;40;20550;-84
2021/06/03 00:02:01;;;;;;;6.13;4.40;;;;;;;7.08;76.11;94246.44;732337;40;20428;-85
2021/06/03 00:02:31;;;;;;;5.45;4.55;;;;;;;7.21;76.20;94261.19;730822;40;20561;-84
2021/06/03 00:03:01;;;;;;;5.85;4.93;;;;;;;7.19;76.35;94258.78;725648;40;20049;-78
2021/06/03 00:03:35;;;;;;;7.80;4.63;;;;;;;7.25;76.03;94263.16;729356;40;20441;-84
2021/06/03 00:04:05;;;;;;;8.57;4.65;;;;;;;7.23;76.02;94257.41;731737;40;22527;-84
2021/06/03 00:04:36;;;;;;;8.00;4.72;;;;;;;7.28;75.94;94269.72;729676;40;20034;-84
2021/06/03 00:05:08;;;;;;;7.50;4.50;;;;;;;7.38;75.59;94251.22;732057;40;20040;-85
2021/06/03 00:05:46;;;;;;;5.15;4.47;;;;;;;7.38;75.08;94253.81;723374;40;20559;-77
2021/06/03 00:06:16;;;;;;;7.55;4.70;;;;;;;7.17;75.27;94227.13;728854;40;20107;-84
2021/06/03 00:06:47;;;;;;;5.65;4.70;;;;;;;7.12;75.24;94216.63;730456;40;20052;-85
2021/06/03 00:07:18;;;;;;;6.43;4.30;;;;;;;7.37;75.39;94270.31;729462;40;20933;-85
2021/06/03 00:07:49;;;;;;;11.63;4.65;;;;;;;7.21;75.49;94238.69;730317;40;20045;-86
2021/06/03 00:08:22;;;;;;;9.30;4.68;;;;;;;7.54;74.93;94268.88;730694;40;20566;-85
2021/06/03 00:08:52;;;;;;;6.22;4.07;;;;;;;7.41;74.83;94261.94;722711;40;20066;-80
2021/06/03 00:09:23;;;;;;;6.38;4.45;;;;;;;7.30;74.82;94235.91;725954;40;20038;-77
2021/06/03 00:09:53;;;;;;;7.45;4.55;;;;;;;7.21;74.52;94220.59;728173;40;20041;-83
2021/06/03 00:10:29;;;;;;;6.90;4.32;;;;;;;7.46;74.37;94256.97;725096;40;20474;-84
2021/06/03 00:11:06;;;;;;;4.68;4.20;;;;;;;7.47;74.62;94270.69;723578;40;20203;-84
2021/06/03 00:11:37;;;;;;;5.38;4.25;;;;;;;7.42;74.43;94268.69;731741;40;20097;-85
2021/06/03 00:12:09;;;;;;;5.68;4.30;;;;;;;7.37;74.59;94265.91;732088;40;20047;-84
2021/06/03 00:12:39;;;;;;;7.22;4.32;;;;;;;7.22;74.79;94257.59;732242;40;20406;-86
2021/06/03 00:13:12;;;;;;;8.70;3.97;;;;;;;7.25;75.18;94268.31;731446;40;20056;-85
2021/06/03 00:13:49;;;;;;;8.63;4.43;;;;;;;7.01;75.61;94235.34;725730;40;20168;-86
2021/06/03 00:14:20;;;;;;;4.45;4.03;;;;;;;7.19;75.40;94269.13;725574;40;20358;-85
2021/06/03 00:14:50;;;;;;;5.30;4.05;;;;;;;7.07;75.61;94257.81;730824;40;20057;-85
2021/06/03 00:15:21;;;;;;;6.55;4.10;;;;;;;6.96;76.31;94242.88;730381;40;20104;-85
2021/06/03 00:15:52;;;;;;;5.47;4.00;;;;;;;7.10;75.93;94261.78;731039;40;20032;-83
2021/06/03 00:16:23;;;;;;;8.02;4.28;;;;;;;7.08;75.71;94264.56;730995;40;20048;-86
2021/06/03 00:16:54;;;;;;;4.97;4.45;;;;;;;7.09;75.51;94273.09;730458;40;20454;-85
2021/06/03 00:17:24;;;;;;;7.65;4.43;;;;;;;6.82;75.71;94233.53;730479;40;30272;-84
2021/06/03 00:17:55;;;;;;;5.07;4.50;;;;;;;7.00;76.21;94259.59;729391;40;20051;-78
2021/06/03 00:18:26;;;;;;;4.53;4.05;;;;;;;7.05;76.38;94274.50;730811;40;20679;-82
2021/06/03 00:18:56;;;;;;;12.63;4.68;;;;;;;6.97;76.33;94247.06;728591;40;20495;-84
2021/06/03 00:19:26;;;;;;;7.70;4.45;;;;;;;7.17;75.74;94253.00;730180;40;20054;-79
2021/06/03 00:19:57;;;;;;;7.35;5.03;;;;;;;7.12;75.71;94257.22;729556;40;20037;-84
2021/06/03 00:20:30;;;;;;;8.70;4.60;;;;;;;7.16;75.92;94264.34;717322;40;20543;-84
2021/06/03 00:21:00;;;;;;;5.65;4.80;;;;;;;7.11;76.30;94269.34;731218;40;20456;-84
2021/06/03 00:21:32;;;;;;;6.68;4.38;;;;;;;6.94;76.51;94235.34;732158;40;20129;-84
2021/06/03 00:22:03;;;;;;;6.15;4.38;;;;;;;7.09;76.57;94262.75;728343;40;20193;-84
2021/06/03 00:22:33;;;;;;;8.93;4.75;;;;;;;6.88;76.45;94214.63;730184;40;20104;-84
2021/06/03 00:23:04;;;;;;;8.23;5.07;;;;;;;7.18;76.57;94262.38;731014;40;20203;-84
2021/06/03 00:23:35;;;;;;;13.88;4.70;;;;;;;7.15;76.65;94260.19;732029;40;20044;-84
2021/06/03 00:24:06;;;;;;;5.32;4.40;;;;;;;7.04;76.58;94244.47;731039;40;20072;-86
2021/06/03 00:24:37;;;;;;;5.13;4.63;;;;;;;7.23;76.75;94270.34;730447;40;20037;-84
2021/06/03 00:25:08;;;;;;;6.15;4.93;;;;;;;7.21;76.49;94267.16;731325;40;20033;-85
2021/06/03 00:25:39;;;;;;;11.27;5.10;;;;;;;7.14;76.63;94257.78;731969;40;20045;-84
2021/06/03 00:26:09;;;;;;;5.13;4.55;;;;;;;6.78;76.99;94202.91;732515;40;20400;-83
2021/06/03 00:26:41;;;;;;;7.13;4.53;;;;;;;7.14;76.69;94256.00;731831;40;20033;-84
2021/06/03 00:27:12;;;;;;;9.23;4.80;;;;;;;7.07;76.47;94244.09;732302;40;20102;-84
2021/06/03 00:27:42;;;;;;;6.28;4.60;;;;;;;7.29;76.15;94265.34;731152;40;20238;-84
2021/06/03 00:28:13;;;;;;;8.48;4.55;;;;;;;7.14;76.14;94240.47;732550;40;20047;-85
2021/06/03 00:28:43;;;;;;;8.43;4.50;;;;;;;7.28;75.93;94261.97;729801;40;20057;-84
2021/06/03 00:29:15;;;;;;;8.00;4.68;;;;;;;7.30;76.32;94269.53;731327;40;20037;-84
2021/06/03 00:29:47;;;;;;;9.27;4.80;;;;;;;7.24;76.22;94269.34;727832;40;20040;-84
2021/06/03 00:30:18;;;;;;;6.13;4.70;;;;;;;7.20;76.11;94255.22;732016;40;20044;-86
2021/06/03 00:30:48;;;;;;;8.88;4.45;;;;;;;6.94;76.01;94206.91;731045;40;20552;-84
2021/06/03 00:31:19;;;;;;;6.20;4.57;;;;;;;7.30;75.87;94264.34;731398;40;20044;-84
2021/06/03 00:31:49;;;;;;;9.10;4.60;;;;;;;7.32;75.53;94262.34;731815;40;20458;-88
2021/06/03 00:32:20;;;;;;;9.02;4.45;;;;;;;7.25;75.41;94260.56;730713;40;20205;-84
2021/06/03 00:32:50;;;;;;;5.82;4.10;;;;;;;7.28;75.09;94248.22;727994;40;20155;-86
2021/06/03 00:33:21;;;;;;;13.07;4.78;;;;;;;7.20;75.17;94259.56;729431;40;20148;-84
2021/06/03 00:33:52;;;;;;;5.30;4.07;;;;;;;7.22;75.53;94270.53;729650;40;20082;-84
2021/06/03 00:34:22;;;;;;;5.53;4.13;;;;;;;6.92;75.86;94239.13;731743;40;20033;-84
2021/06/03 00:34:53;;;;;;;5.85;4.80;;;;;;;7.12;76.14;94254.63;730681;40;20052;-84
2021/06/03 00:35:23;;;;;;;6.13;4.88;;;;;;;7.17;75.95;94254.81;729544;40;20052;-84
2021/06/03 00:35:54;;;;;;;5.85;4.40;;;;;;;7.24;75.59;94255.59;730752;40;20076;-84
2021/06/03 00:36:24;;;;;;;7.20;4.50;;;;;;;7.35;75.84;94259.38;730156;40;20057;-84
2021/06/03 00:36:55;;;;;;;6.32;4.40;;;;;;;7.26;75.87;94261.34;730655;40;20061;-83
2021/06/03 00:37:25;;;;;;;10.18;5.05;;;;;;;7.24;76.16;94271.91;729768;40;20221;-84
2021/06/03 00:37:56;;;;;;;5.32;4.60;;;;;;;7.14;76.64;94261.16;731417;40;20485;-84
2021/06/03 00:38:26;;;;;;;5.40;4.90;;;;;;;7.08;76.14;94246.44;731351;40;22189;-84
2021/06/03 00:38:56;;;;;;;6.05;4.50;;;;;;;6.87;75.75;94215.66;732541;40;20047;-84
2021/06/03 00:39:27;;;;;;;5.30;4.22;;;;;;;6.69;76.21;94217.03;731630;40;20125;-84
2021/06/03 00:39:57;;;;;;;6.05;4.40;;;;;;;6.71;76.51;94233.16;730033;40;20049;-84
2021/06/03 00:40:29;;;;;;;5.70;4.45;;;;;;;6.87;76.85;94260.41;728275;40;20194;-84
2021/06/03 00:40:59;;;;;;;6.07;4.90;;;;;;;6.87;76.74;94280.28;730205;40;20029;-84
2021/06/03 00:41:30;;;;;;;5.57;4.90;;;;;;;6.78;77.32;94267.53;729126;40;20048;-87
2021/06/03 00:42:00;;;;;;;8.77;4.50;;;;;;;6.79;77.45;94269.13;730480;40;20067;-84
2021/06/03 00:42:31;;;;;;;8.95;4.70;;;;;;;6.80;77.79;94269.94;731161;40;20186;-84
2021/06/03 00:43:02;;;;;;;6.85;5.30;;;;;;;6.85;77.61;94272.72;733232;40;20063;-84
2021/06/03 00:43:32;;;;;;;6.32;5.03;;;;;;;6.83;77.73;94258.38;732523;40;20040;-84
2021/06/03 00:44:04;;;;;;;6.60;4.38;;;;;;;6.69;77.23;94232.56;732966;40;20052;-84
2021/06/03 00:44:35;;;;;;;7.80;4.57;;;;;;;6.88;77.51;94266.34;733430;40;20247;-84
2021/06/03 00:45:09;;;;;;;7.25;4.65;;;;;;;6.88;77.66;94261.97;733624;40;20036;-84
2021/06/03 00:45:40;;;;;;;10.07;4.80;;;;;;;6.89;77.70;94273.94;731396;40;20141;-84
2021/06/03 00:46:11;;;;;;;14.52;4.75;;;;;;;6.88;77.70;94268.94;732452;40;20037;-83
2021/06/03 00:46:42;;;;;;;12.02;4.47;;;;;;;6.71;78.23;94243.50;728369;40;20151;-83
2021/06/03 00:47:12;;;;;;;5.63;4.72;;;;;;;6.90;77.58;94259.19;730861;40;31194;-84
2021/06/03 00:47:43;;;;;;;7.63;5.00;;;;;;;7.24;76.52;94279.69;729930;40;20033;-84
2021/06/03 00:48:14;;;;;;;7.38;5.45;;;;;;;7.39;75.02;94257.97;731442;40;20093;-84
2021/06/03 00:48:44;;;;;;;8.82;5.35;;;;;;;7.24;74.39;94209.81;732028;40;20037;-84
2021/06/03 00:49:15;;;;;;;9.90;5.30;;;;;;;7.51;74.68;94268.50;733009;40;20036;-84
2021/06/03 00:49:45;;;;;;;7.28;4.95;;;;;;;7.30;74.92;94241.06;732371;40;20037;-84
2021/06/03 00:50:20;;;;;;;6.43;5.10;;;;;;;7.26;75.69;94253.59;732040;40;20358;-84
2021/06/03 00:50:53;;;;;;;9.02;4.55;;;;;;;7.20;76.04;94264.75;727187;40;21063;-84
2021/06/03 00:51:24;;;;;;;5.18;4.68;;;;;;;7.14;76.27;94255.19;727067;40;20034;-84
2021/06/03 00:51:55;;;;;;;8.27;4.50;;;;;;;7.10;76.29;94259.19;729110;40;20048;-84
2021/06/03 00:52:26;;;;;;;5.47;4.30;;;;;;;7.10;76.59;94270.34;730396;40;20071;-85
2021/06/03 00:52:57;;;;;;;5.50;4.20;;;;;;;7.03;76.41;94259.22;731505;40;20166;-84
2021/06/03 00:53:28;;;;;;;5.57;4.80;;;;;;;7.05;76.69;94267.53;730492;40;20061;-84
2021/06/03 00:53:58;;;;;;;5.20;4.70;;;;;;;7.00;77.41;94275.09;731266;40;20101;-84
2021/06/03 00:54:29;;;;;;;5.75;4.80;;;;;;;6.89;77.34;94255.81;724762;40;20205;-83
2021/06/03 00:55:00;;;;;;;5.28;4.55;;;;;;;6.95;77.31;94272.34;726968;40;20063;-87
2021/06/03 00:55:32;;;;;;;7.05;4.80;;;;;;;6.91;77.46;94271.13;729114;40;20060;-84
2021/06/03 00:56:05;;;;;;;8.02;4.88;;;;;;;6.93;77.32;94279.50;730404;40;20065;-84
2021/06/03 00:56:37;;;;;;;12.75;4.53;;;;;;;6.90;77.28;94265.16;724671;40;20045;-84
2021/06/03 00:57:08;;;;;;;10.70;5.95;;;;;;;6.91;77.44;94271.13;727570;40;20074;-85
2021/06/03 00:57:38;;;;;;;13.23;4.72;;;;;;;6.88;77.72;94274.09;727809;40;20251;-84
2021/06/03 00:58:09;;;;;;;6.60;4.50;;;;;;;6.77;77.71;94255.63;730796;40;20045;-84
2021/06/03 00:58:39;;;;;;;9.77;4.85;;;;;;;6.88;77.67;94281.88;729032;40;20148;-84
2021/06/03 00:59:09;;;;;;;8.80;4.90;;;;;;;6.79;78.07;94269.13;731386;40;20057;-84
2021/06/03 00:59:40;;;;;;;8.48;4.80;;;;;;;6.81;78.17;94276.69;731054;40;20264;-84
2021/06/03 01:00:13;;;;;;;6.75;5.03;;;;;;;6.54;78.29;94240.50;730666;40;20041;-84
2021/06/03 01:00:44;;;;;;;5.55;4.55;;;;;;;6.82;78.33;94280.88;728294;40;20322;-84
2021/06/03 01:01:14;;;;;;;5.25;4.18;;;;;;;6.88;78.20;94279.28;729512;40;20061;-84
2021/06/03 01:01:45;;;;;;;5.47;4.50;;;;;;;6.85;78.16;94275.28;728401;40;20147;-85
2021/06/03 01:02:16;;;;;;;6.45;4.32;;;;;;;6.88;78.45;94284.44;731234;40;20064;-83
2021/06/03 01:02:46;;;;;;;6.63;4.35;;;;;;;6.58;78.45;94235.72;730595;40;20049;-84
2021/06/03 01:03:18;;;;;;;5.22;4.57;;;;;;;6.74;78.48;94271.53;731577;40;20045;-85
2021/06/03 01:03:49;;;;;;;7.50;4.28;;;;;;;6.70;78.11;94254.03;725866;40;20084;-84
2021/06/03 01:04:21;;;;;;;4.65;4.25;;;;;;;6.83;78.10;94274.72;730000;40;20045;-84
2021/06/03 01:04:51;;;;;;;7.05;4.97;;;;;;;6.53;78.21;94223.38;727653;40;20068;-84
2021/06/03 01:05:51;;;;;;;7.72;4.45;;;;;;;7.05;77.05;94270.13;727682;40;20057;-84
2021/06/03 01:06:21;;;;;;;8.70;4.80;;;;;;;7.31;75.66;94256.38;720550;40;20064;-84
2021/06/03 01:06:52;;;;;;;5.82;4.75;;;;;;;7.44;75.07;94282.25;725194;40;20094;-84
2021/06/03 01:07:22;;;;;;;6.53;4.90;;;;;;;6.83;74.68;94229.94;730212;40;20044;-84
2021/06/03 01:07:56;;;;;;;6.10;4.65;;;;;;;6.95;75.59;94277.50;730302;40;20057;-84
2021/06/03 01:08:38;;;;;;;5.28;4.57;;;;;;;7.04;75.77;94281.47;720922;40;20094;-84
2021/06/03 01:09:28;;;;;;;10.10;5.40;;;;;;;6.93;76.54;94282.88;729980;40;20120;-84
2021/06/03 01:10:09;;;;;;;8.70;5.93;;;;;;;6.76;77.71;94274.69;733180;40;20025;-84
2021/06/03 01:11:23;;;;;;;7.00;5.53;;;;;;;6.67;77.83;94269.94;723692;40;20707;-85
2021/06/03 01:12:18;;;;;;;6.53;5.03;;;;;;;6.72;78.39;94278.69;717987;40;20103;-84
2021/06/03 01:13:17;;;;;;;5.90;4.85;;;;;;;6.77;78.41;94276.31;718862;40;21966;-84
2021/06/03 01:14:23;;;;;;;5.15;4.65;;;;;;;6.86;78.13;94286.47;715418;40;20090;-84
2021/06/03 01:14:58;;;;;;;7.55;5.32;;;;;;;6.84;78.18;94291.81;721240;40;20046;-82
2021/06/03 01:15:29;;;;;;;12.13;5.78;;;;;;;6.87;78.08;94285.47;719647;40;20062;-84
2021/06/03 01:16:02;;;;;;;7.38;5.60;;;;;;;6.81;77.95;94273.31;720947;40;20043;-85
2021/06/03 01:16:34;;;;;;;10.77;5.30;;;;;;;6.91;77.31;94284.06;712740;40;20059;-84
2021/06/03 01:17:05;;;;;;;7.97;5.60;;;;;;;7.12;76.49;94289.03;718710;40;20046;-85
2021/06/03 01:17:38;;;;;;;7.28;5.20;;;;;;;7.41;74.80;94285.25;720237;40;20050;-84
2021/06/03 01:18:10;;;;;;;5.13;4.57;;;;;;;7.42;73.81;94280.84;720548;40;20571;-84
2021/06/03 01:18:41;;;;;;;5.72;4.40;;;;;;;7.02;74.10;94270.53;720061;40;20059;-84
2021/06/03 01:19:18;;;;;;;8.38;5.05;;;;;;;6.82;75.27;94272.31;720729;40;20044;-84
2021/06/03 01:19:51;;;;;;;5.53;4.63;;;;;;;6.70;76.48;94285.81;720716;40;20035;-84
2021/06/03 01:20:23;;;;;;;7.78;4.45;;;;;;;6.62;77.05;94282.63;721862;40;20532;-85
2021/06/03 01:20:56;;;;;;;5.38;4.45;;;;;;;6.47;77.24;94287.97;719759;40;20861;-85
2021/06/03 01:21:40;;;;;;;5.80;4.43;;;;;;;6.32;78.28;94283.78;713959;40;20078;-85
2021/06/03 01:22:19;;;;;;;5.35;4.38;;;;;;;6.18;79.01;94269.22;720469;40;20091;-84
2021/06/03 01:22:54;;;;;;;6.00;4.85;;;;;;;6.29;79.01;94289.31;720812;40;20039;-85
2021/06/03 01:23:33;;;;;;;6.65;4.78;;;;;;;6.07;79.55;94262.03;718210;40;21530;-85
2021/06/03 01:24:24;;;;;;;10.93;5.10;;;;;;;6.20;80.05;94284.53;715569;40;20070;-84
2021/06/03 01:24:56;;;;;;;;;;;;;;;6.23;80.45;94287.53;712244;40;20052;-85
2021/06/03 01:25:26;;;;;;;5.80;5.20;;;;;;;6.16;80.38;94273.78;715686;41;19959;-85
2021/06/03 01:25:57;;;;;;;6.10;5.38;;;;;;;6.34;80.18;94284.38;717870;40;20044;-85
2021/06/03 01:26:29;;;;;;;5.57;4.82;;;;;;;6.42;79.98;94283.41;718474;40;20076;-85
2021/06/03 01:27:05;;;;;;;6.40;4.60;;;;;;;6.34;79.21;94276.63;720904;40;20046;-85
2021/06/03 01:27:36;;;;;;;13.00;5.82;;;;;;;6.34;79.65;94284.38;711662;40;20115;-86
2021/06/03 01:28:07;;;;;;;8.30;5.90;;;;;;;6.31;79.98;94284.78;718809;40;20852;-85
2021/06/03 01:28:38;;;;;;;9.38;6.20;;;;;;;6.25;79.99;94282.97;718999;40;20071;-85
2021/06/03 01:29:09;;;;;;;10.43;5.95;;;;;;;5.95;79.73;94243.72;721538;40;20388;-85
2021/06/03 01:29:52;;;;;;;10.18;5.95;;;;;;;6.23;80.04;94286.72;714342;40;20062;-85
2021/06/03 01:30:34;;;;;;;5.95;5.32;;;;;;;6.32;78.99;94288.94;712245;40;20036;-85
2021/06/03 01:31:05;;;;;;;10.52;5.47;;;;;;;6.20;79.73;94276.78;711472;40;20039;-85
2021/06/03 01:31:36;;;;;;;8.23;5.88;;;;;;;6.21;79.93;94288.69;719964;40;20070;-85
2021/06/03 01:32:07;;;;;;;8.52;5.68;;;;;;;6.18;79.78;94297.63;722106;40;20066;-84
2021/06/03 01:32:42;;;;;;;7.55;5.00;;;;;;;6.13;79.94;94291.44;722804;40;20042;-85
2021/06/03 01:33:17;;;;;;;5.68;5.10;;;;;;;6.12;79.68;94293.25;721583;40;20067;-84
2021/06/03 01:33:47;;;;;;;6.80;4.70;;;;;;;6.04;79.54;94296.00;720901;40;20095;-84
2021/06/03 01:34:20;;;;;;;8.05;5.05;;;;;;;5.91;80.22;94277.84;722842;40;20036;-85
2021/06/03 01:34:52;;;;;;;7.30;4.65;;;;;;;5.70;80.09;94248.56;721918;40;21801;-86
2021/06/03 01:35:30;;;;;;;5.38;4.78;;;;;;;6.01;80.18;94298.97;715909;40;20063;-85
2021/06/03 01:36:05;;;;;;;8.27;4.88;;;;;;;6.03;80.41;94289.25;716899;40;20051;-85
2021/06/03 01:36:36;;;;;;;8.00;5.15;;;;;;;5.95;80.52;94297.16;715472;40;20075;-85
2021/06/03 01:37:08;;;;;;;7.65;4.82;;;;;;;5.80;80.75;94281.75;715972;40;20080;-85
2021/06/03 01:37:40;;;;;;;8.13;5.20;;;;;;;5.76;81.12;94283.94;718224;40;20441;-85
2021/06/03 01:38:16;;;;;;;9.35;5.60;;;;;;;5.87;81.12;94290.31;721029;40;20055;-84
2021/06/03 01:38:47;;;;;;;5.95;5.22;;;;;;;5.82;81.21;94285.75;721207;40;20038;-84
2021/06/03 01:39:18;;;;;;;7.05;4.95;;;;;;;5.84;80.79;94290.72;723110;40;20038;-85
2021/06/03 01:39:49;;;;;;;10.30;5.38;;;;;;;5.78;81.13;94302.59;722299;40;20113;-84
2021/06/03 01:40:22;;;;;;;8.98;5.13;;;;;;;5.43;81.39;94250.22;722672;40;20054;-85
2021/06/03 01:40:53;;;;;;;8.07;5.70;;;;;;;5.69;81.25;94297.78;717204;40;20047;-85
2021/06/03 01:41:24;;;;;;;6.88;5.35;;;;;;;5.42;80.71;94257.16;722653;40;20028;-85
2021/06/03 01:41:56;;;;;;;9.23;5.10;;;;;;;5.52;80.47;94298.09;721973;40;20273;-84
2021/06/03 01:42:27;;;;;;;10.88;5.20;;;;;;;5.26;80.93;94278.06;722603;40;20321;-84
2021/06/03 01:42:59;;;;;;;7.85;5.50;;;;;;;5.03;81.14;94247.38;721017;40;20745;-84
2021/06/03 01:43:30;;;;;;;5.93;4.93;;;;;;;5.43;81.08;94302.59;722567;40;20051;-84
2021/06/03 01:44:02;;;;;;;9.73;5.30;;;;;;;5.29;80.86;94271.75;725048;40;20031;-84
2021/06/03 01:44:33;;;;;;;8.18;4.80;;;;;;;5.35;80.85;94297.59;728151;40;20037;-85
2021/06/03 01:45:05;;;;;;;8.88;5.53;;;;;;;5.28;81.00;94286.44;727295;40;20386;-85
2021/06/03 01:45:35;;;;;;;5.95;5.20;;;;;;;5.38;81.61;94296.41;726539;40;20034;-84
2021/06/03 01:46:06;;;;;;;6.68;5.40;;;;;;;5.35;81.98;94294.19;728091;40;20143;-85
2021/06/03 01:46:37;;;;;;;6.68;5.20;;;;;;;5.39;81.91;94296.22;728464;40;20101;-88
2021/06/03 01:47:09;;;;;;;6.47;4.95;;;;;;;5.32;82.31;94295.41;728775;40;20100;-84
2021/06/03 01:47:40;;;;;;;9.60;5.78;;;;;;;5.22;82.46;94272.50;730017;40;20058;-84
2021/06/03 01:48:12;;;;;;;10.05;5.68;;;;;;;5.35;82.73;94287.28;727687;40;20056;-84
2021/06/03 01:48:43;;;;;;;8.65;5.40;;;;;;;5.43;82.66;94294.84;729445;40;20733;-84
2021/06/03 01:49:14;;;;;;;6.95;5.72;;;;;;;5.47;82.61;94302.22;730393;40;20037;-85
2021/06/03 01:49:45;;;;;;;9.43;5.80;;;;;;;5.07;82.41;94235.72;730088;40;20125;-85
2021/06/03 01:50:17;;;;;;;7.47;5.63;;;;;;;5.53;82.06;94307.44;730085;40;20049;-84
2021/06/03 01:50:49;;;;;;;6.10;5.35;;;;;;;5.42;81.90;94289.91;723307;40;20040;-84
2021/06/03 01:51:20;;;;;;;6.90;4.93;;;;;;;5.22;82.01;94251.09;727816;40;20128;-84
2021/06/03 01:51:51;;;;;;;6.45;5.50;;;;;;;5.60;81.71;94299.72;727456;40;20038;-85
2021/06/03 01:52:23;;;;;;;7.00;5.07;;;;;;;5.63;81.59;94297.56;726204;40;20123;-84
2021/06/03 01:52:54;;;;;;;5.55;5.03;;;;;;;5.71;81.47;94298.41;720043;40;20448;-85
2021/06/03 01:53:27;;;;;;;6.97;5.10;;;;;;;5.78;81.38;94297.44;726811;40;20093;-85
2021/06/03 01:53:59;;;;;;;7.03;5.30;;;;;;;5.80;81.38;94300.63;726789;40;20067;-85
2021/06/03 01:54:31;;;;;;;12.20;5.05;;;;;;;5.85;81.24;94303.44;729553;40;20056;-85
2021/06/03 01:55:03;;;;;;;6.35;5.35;;;;;;;5.76;81.36;94289.09;730732;40;20049;-85
2021/06/03 01:55:34;;;;;;;6.88;5.22;;;;;;;5.83;81.30;94289.91;729203;40;20099;-85
2021/06/03 01:56:10;;;;;;;8.50;5.18;;;;;;;5.91;81.03;94294.13;732588;40;20045;-84
2021/06/03 01:56:41;;;;;;;8.15;5.00;;;;;;;5.74;80.94;94267.84;726078;40;20061;-84
2021/06/03 01:57:12;;;;;;;7.28;4.97;;;;;;;5.76;81.17;94272.81;729923;40;20041;-85
2021/06/03 01:57:45;;;;;;;5.53;4.90;;;;;;;5.85;81.14;94295.69;730053;40;20053;-85
2021/06/03 01:58:16;;;;;;;7.35;5.22;;;;;;;5.85;80.90;94287.16;729603;40;20045;-85
2021/06/03 01:58:47;;;;;;;6.22;4.78;;;;;;;5.91;80.81;94291.56;728363;40;21092;-84
2021/06/03 01:59:18;;;;;;;7.18;4.93;;;;;;;5.86;81.23;94289.53;728982;40;20472;-84
2021/06/03 01:59:48;;;;;;;6.88;4.78;;;;;;;5.65;81.25;94251.72;728329;40;20030;-85
2021/06/03 02:00:21;;;;;;;8.52;5.30;;;;;;;5.85;81.12;94285.38;728782;40;20028;-84
2021/06/03 02:00:52;;;;;;;7.47;5.60;;;;;;;5.83;81.26;94276.22;725787;40;20041;-85
2021/06/03 02:01:23;;;;;;;8.57;5.70;;;;;;;6.01;81.41;94297.16;729728;40;20255;-85
2021/06/03 02:01:54;;;;;;;7.38;5.43;;;;;;;6.07;81.15;94298.19;730477;40;20170;-84
2021/06/03 02:02:25;;;;;;;6.85;4.95;;;;;;;6.06;80.71;94294.03;730924;40;20053;-85
2021/06/03 02:02:56;;;;;;;8.48;5.20;;;;;;;6.30;79.87;94290.91;731149;40;20342;-85
2021/06/03 02:03:27;;;;;;;6.10;4.85;;;;;;;6.40;79.24;94294.94;732843;40;20128;-85
2021/06/03 02:04:00;;;;;;;5.13;4.63;;;;;;;6.34;79.05;94286.97;730729;40;20365;-84
2021/06/03 02:04:32;;;;;;;7.32;5.03;;;;;;;6.34;78.98;94286.97;730196;40;20135;-85
2021/06/03 02:05:04;;;;;;;6.82;4.75;;;;;;;6.24;79.46;94280.56;731352;40;20077;-85
2021/06/03 02:05:34;;;;;;;6.57;5.07;;;;;;;6.00;79.71;94243.16;732105;40;20648;-84
2021/06/03 02:06:06;;;;;;;5.53;4.68;;;;;;;6.26;79.74;94300.06;732082;40;20070;-85
2021/06/03 02:06:36;;;;;;;7.32;5.15;;;;;;;6.00;79.84;94258.66;733676;40;20085;-86
2021/06/03 02:07:07;;;;;;;5.85;4.63;;;;;;;6.09;80.11;94280.72;732252;40;20078;-85
2021/06/03 02:07:37;;;;;;;6.25;4.88;;;;;;;6.09;80.07;94283.31;731208;40;20037;-84
2021/06/03 02:08:08;;;;;;;5.60;5.00;;;;;;;6.14;80.08;94285.31;729470;40;20615;-87
2021/06/03 02:08:38;;;;;;;5.65;4.65;;;;;;;6.23;79.57;94303.03;729704;40;20116;-85
2021/06/03 02:09:11;;;;;;;7.25;4.68;;;;;;;6.25;79.51;94298.47;728638;40;20116;-85
2021/06/03 02:09:41;;;;;;;5.10;4.60;;;;;;;6.19;79.88;94299.25;728145;40;20037;-85
2021/06/03 02:10:14;;;;;;;5.47;4.97;;;;;;;6.16;80.21;94298.81;726338;40;20061;-84
2021/06/03 02:10:45;;;;;;;5.65;4.90;;;;;;;5.88;80.34;94256.59;729970;40;20060;-85
2021/06/03 02:11:16;;;;;;;5.90;5.15;;;;;;;6.10;80.52;94301.19;730798;40;29910;-84
2021/06/03 02:11:48;;;;;;;5.30;4.72;;;;;;;6.08;80.73;94299.78;729994;40;20045;-84
2021/06/03 02:12:18;;;;;;;8.27;5.18;;;;;;;5.94;80.52;94269.75;731891;40;20053;-85
2021/06/03 02:12:58;;;;;;;6.60;4.78;;;;;;;6.00;80.36;94279.31;731068;40;20092;-85
2021/06/03 02:13:48;;;;;;;7.20;4.80;;;;;;;6.13;80.33;94296.63;729474;40;20087;-84
2021/06/03 02:14:22;;;;;;;6.65;5.00;;;;;;;6.05;80.61;94290.66;729439;40;20036;-84
2021/06/03 02:14:55;;;;;;;6.47;4.60;;;;;;;6.07;80.41;94285.28;730718;40;20033;-84
2021/06/03 02:15:30;;;;;;;10.77;5.47;;;;;;;6.13;80.52;94299.19;726311;40;20040;-85
2021/06/03 02:16:15;;;;;;;5.35;4.85;;;;;;;6.10;80.99;94300.38;723626;40;20834;-85
2021/06/03 02:16:53;;;;;;;5.32;4.82;;;;;;;6.07;80.08;94295.59;724244;40;20049;-85
2021/06/03 02:17:31;;;;;;;7.10;4.82;;;;;;;6.14;80.21;94295.66;728868;40;20033;-84
2021/06/03 02:18:04;;;;;;;9.30;4.90;;;;;;;6.23;80.13;94295.28;720172;40;20048;-85
2021/06/03 02:18:43;;;;;;;7.60;5.03;;;;;;;6.21;80.17;94294.66;728043;40;20066;-85
2021/06/03 02:19:19;;;;;;;6.55;5.22;;;;;;;6.15;80.35;94290.28;729502;40;20327;-85
2021/06/03 02:20:16;;;;;;;6.05;5.45;;;;;;;6.18;80.35;94296.84;722847;40;20041;-84
2021/06/03 02:20:47;;;;;;;7.18;5.22;;;;;;;6.06;80.52;94286.28;721064;40;20049;-85
2021/06/03 02:21:19;;;;;;;8.40;5.00;;;;;;;6.14;80.46;94296.44;728864;40;20068;-85
2021/06/03 02:21:51;;;;;;;8.50;5.38;;;;;;;6.11;80.65;94295.03;728976;40;20037;-84
2021/06/03 02:22:23;;;;;;;5.85;5.25;;;;;;;6.10;80.76;94290.06;730925;40;20053;-85
2021/06/03 02:22:55;;;;;;;9.00;5.35;;;;;;;5.92;80.54;94264.72;730208;40;20041;-85
2021/06/03 02:23:26;;;;;;;7.00;5.32;;;;;;;6.03;80.53;94278.91;726148;40;20045;-84
2021/06/03 02:23:59;;;;;;;14.70;5.70;;;;;;;6.08;80.79;94294.63;729242;40;20404;-84
2021/06/03 02:24:30;;;;;;;7.63;4.93;;;;;;;6.04;80.71;94281.28;730436;40;20104;-85
2021/06/03 02:25:01;;;;;;;7.13;5.10;;;;;;;6.13;80.72;94291.44;728094;40;20205;-85
2021/06/03 02:25:31;;;;;;;8.73;5.70;;;;;;;6.10;80.57;94292.63;729021;40;20068;-87
2021/06/03 02:26:03;;;;;;;7.72;4.85;;;;;;;6.03;80.77;94281.50;730540;40;20052;-84
2021/06/03 02:26:35;;;;;;;7.65;5.10;;;;;;;6.06;80.88;94287.06;722487;40;20061;-84
2021/06/03 02:27:06;;;;;;;5.28;4.78;;;;;;;6.04;81.02;94286.44;731057;40;20040;-85
2021/06/03 02:27:38;;;;;;;8.45;5.35;;;;;;;5.98;80.90;94276.91;730083;40;20407;-85
2021/06/03 02:28:09;;;;;;;7.35;4.95;;;;;;;6.03;80.94;94295.19;725973;40;20073;-84
2021/06/03 02:28:42;;;;;;;7.88;5.40;;;;;;;6.01;81.25;94289.41;733671;40;22666;-85
2021/06/03 02:29:12;;;;;;;7.47;5.70;;;;;;;6.00;81.22;94287.84;727293;40;20037;-85
2021/06/03 02:29:44;;;;;;;5.97;5.10;;;;;;;6.05;81.20;94292.44;729735;40;20221;-84
2021/06/03 02:30:18;;;;;;;7.07;4.82;;;;;;;6.10;81.16;94300.38;730235;40;20038;-87
2021/06/03 02:30:49;;;;;;;6.10;5.50;;;;;;;6.02;81.08;94278.13;729772;40;20053;-85
2021/06/03 02:31:20;;;;;;;6.95;4.82;;;;;;;6.05;80.94;94282.09;731999;40;20259;-84
2021/06/03 02:31:51;;;;;;;7.70;5.18;;;;;;;5.96;81.09;94268.56;725155;40;21006;-84
2021/06/03 02:32:22;;;;;;;8.10;5.55;;;;;;;6.09;81.18;94289.25;730422;40;20057;-84
2021/06/03 02:32:53;;;;;;;10.93;5.40;;;;;;;6.12;81.04;94293.25;730198;40;20061;-85
2021/06/03 02:33:24;;;;;;;7.18;5.40;;;;;;;6.08;81.07;94284.31;730020;40;20250;-85
2021/06/03 02:33:55;;;;;;;5.40;4.90;;;;;;;6.06;80.94;94281.91;730016;40;20065;-85
2021/06/03 02:34:25;;;;;;;6.72;5.10;;;;;;;6.17;80.58;94288.31;728504;40;20042;-84
2021/06/03 02:34:56;;;;;;;8.13;5.00;;;;;;;6.15;80.33;94282.53;730995;40;20038;-84
2021/06/03 02:35:29;;;;;;;10.52;5.60;;;;;;;6.13;80.81;94286.28;729648;40;20072;-84
2021/06/03 02:36:01;;;;;;;7.50;5.75;;;;;;;6.08;81.08;94286.88;732492;40;20056;-85
2021/06/03 02:36:31;;;;;;;6.97;5.13;;;;;;;6.06;81.36;94281.09;730516;40;20268;-85
2021/06/03 02:37:10;;;;;;;7.25;5.22;;;;;;;6.05;80.99;94274.38;729122;40;20104;-85
2021/06/03 02:37:43;;;;;;;6.78;5.40;;;;;;;6.12;80.96;94282.91;722892;40;20304;-84